Time;durP1;ratioP1;P1;durP2;ratioP2;P2;SDS_P1;SDS_P2;PMS_P1;PMS_P2;Temp;Humidity;BMP_temperature;BMP_pressure;BME280_temperature;BME280_humidity;BME280_pressure;Samples;Min_cycle;Max_cycle;Signal;HPM_P1;HPM_P2
2022/11/19 00:04:08;;;;;;;9.03;8.13;;;4.20;99.90;;;;;;2615257;54;20500;-78
2022/11/19 00:09:56;;;;;;;12.30;9.40;;;4.00;99.90;;;;;;2615154;54;20166;-77
2022/11/19 00:15:47;;;;;;;11.63;8.40;;;4.00;99.90;;;;;;2615254;54;20636;-77
2022/11/19 00:21:34;;;;;;;9.10;8.13;;;4.00;99.90;;;;;;2613336;39;20840;-75
2022/11/19 00:24:48;;;;;;;9.73;8.73;;;4.00;99.90;;;;;;2614681;54;20395;-77
2022/11/19 00:27:14;;;;;;;11.43;9.87;;;4.00;99.90;;;;;;2614810;46;20182;-77
2022/11/19 00:33:01;;;;;;;9.37;8.33;;;4.00;99.90;;;;;;2615660;54;20158;-76
2022/11/19 00:38:49;;;;;;;13.23;8.97;;;4.00;99.90;;;;;;2615879;39;20525;-77
2022/11/19 00:44:38;;;;;;;15.50;10.40;;;3.90;99.90;;;;;;2616106;54;20513;-77
2022/11/19 00:50:25;;;;;;;10.73;9.07;;;3.80;99.90;;;;;;2615219;54;20122;-77
2022/11/19 00:56:15;;;;;;;11.27;8.83;;;3.80;99.90;;;;;;2615981;39;20538;-77
2022/11/19 01:02:03;;;;;;;11.80;9.20;;;3.80;99.90;;;;;;2614671;54;20479;-77
2022/11/19 01:07:52;;;;;;;9.23;8.00;;;3.80;99.90;;;;;;2614729;54;20147;-77
2022/11/19 01:13:39;;;;;;;11.53;9.07;;;3.80;99.90;;;;;;2615511;54;20398;-76
2022/11/19 01:19:27;;;;;;;11.67;9.23;;;3.80;99.90;;;;;;2616065;54;20769;-76
2022/11/19 01:29:27;;;;;;;12.33;9.33;;;3.80;99.90;;;;;;2615791;54;20377;-78
2022/11/19 01:35:15;;;;;;;12.80;10.53;;;3.80;99.90;;;;;;2614547;54;20399;-77
2022/11/19 01:41:03;;;;;;;17.10;13.00;;;3.70;99.90;;;;;;2616055;54;20150;-78
2022/11/19 01:46:51;;;;;;;19.30;12.77;;;3.70;99.90;;;;;;2616769;54;20399;-78
2022/11/19 01:52:39;;;;;;;15.70;12.77;;;3.50;99.90;;;;;;2616887;54;20159;-77
2022/11/19 01:58:27;;;;;;;23.00;15.20;;;3.50;99.90;;;;;;2617396;31;20866;-78
2022/11/19 02:04:16;;;;;;;19.70;14.93;;;3.40;99.90;;;;;;2615762;31;20641;-78
2022/11/19 02:10:05;;;;;;;20.60;15.87;;;3.50;99.90;;;;;;2615915;54;20383;-77
2022/11/19 02:22:28;;;;;;;23.73;17.33;;;3.30;99.90;;;;;;2615534;54;20426;-76
2022/11/19 02:47:30;;;;;;;25.73;19.00;;;2.90;99.90;;;;;;2616491;54;21009;-77
2022/11/19 02:53:19;;;;;;;24.47;17.53;;;2.90;99.90;;;;;;2615837;54;20426;-77
2022/11/19 03:05:17;;;;;;;28.03;19.07;;;2.90;99.90;;;;;;2614302;54;20487;-78
2022/11/19 03:11:28;;;;;;;28.70;20.10;;;2.90;99.90;;;;;;2614786;54;20503;-78
2022/11/19 03:20:37;;;;;;;26.90;19.20;;;2.80;99.90;;;;;;2615607;54;20430;-78
2022/11/19 03:29:53;;;;;;;30.47;19.83;;;2.80;99.90;;;;;;2614536;54;20432;-77
2022/11/19 03:35:48;;;;;;;27.87;20.53;;;2.70;99.90;;;;;;2613949;39;21082;-77
2022/11/19 03:41:56;;;;;;;34.03;20.67;;;2.70;99.90;;;;;;2614719;54;21172;-78
2022/11/19 03:47:46;;;;;;;33.27;20.73;;;2.70;99.90;;;;;;2615030;54;20925;-78
2022/11/19 03:53:33;;;;;;;31.90;21.57;;;2.70;99.90;;;;;;2615333;39;20928;-79
2022/11/19 03:59:22;;;;;;;29.60;21.70;;;2.60;99.90;;;;;;2615508;39;20612;-78
2022/11/19 04:05:10;;;;;;;34.03;22.53;;;2.60;99.90;;;;;;2615392;54;20374;-78
2022/11/19 04:10:57;;;;;;;30.90;20.80;;;2.60;99.90;;;;;;2615378;54;20544;-77
2022/11/19 04:16:45;;;;;;;32.27;22.40;;;2.60;99.90;;;;;;2614919;54;20387;-80
2022/11/19 04:19:11;;;;;;;32.17;21.50;;;2.50;99.90;;;;;;2613841;47;20410;-80
2022/11/19 04:21:37;;;;;;;35.70;23.77;;;2.50;99.90;;;;;;2615694;46;20420;-79
2022/11/19 04:30:58;;;;;;;32.43;24.20;;;2.50;99.90;;;;;;2616111;54;20433;-78
2022/11/19 04:36:46;;;;;;;29.47;21.70;;;2.40;99.90;;;;;;2615676;54;20387;-79
2022/11/19 04:42:34;;;;;;;33.73;22.37;;;2.40;99.90;;;;;;2615624;54;20134;-79
2022/11/19 04:48:22;;;;;;;31.97;22.53;;;2.50;99.90;;;;;;2616011;54;20141;-77
2022/11/19 04:54:09;;;;;;;36.70;24.23;;;2.40;99.90;;;;;;2615105;54;20194;-78
2022/11/19 04:59:57;;;;;;;38.70;25.07;;;2.40;99.90;;;;;;2614953;54;20309;-78
2022/11/19 05:05:44;;;;;;;33.13;20.97;;;2.40;99.90;;;;;;2614477;54;20432;-78
2022/11/19 05:11:31;;;;;;;34.37;22.67;;;2.50;99.90;;;;;;2614112;54;20211;-78
2022/11/19 05:17:18;;;;;;;34.70;24.20;;;2.40;99.90;;;;;;2614729;54;20447;-78
2022/11/19 05:23:05;;;;;;;32.43;20.73;;;2.30;99.90;;;;;;2614339;54;20161;-78
2022/11/19 05:26:22;;;;;;;33.93;23.50;;;2.40;99.90;;;;;;2613251;47;20518;-79
2022/11/19 05:28:48;;;;;;;35.53;23.30;;;2.30;99.90;;;;;;2614822;54;20155;-78
2022/11/19 05:34:35;;;;;;;39.03;22.07;;;2.30;99.90;;;;;;2614722;54;20239;-78
2022/11/19 05:40:22;;;;;;;36.60;23.07;;;2.20;99.90;;;;;;2614631;54;20150;-79
2022/11/19 05:49:30;;;;;;;37.90;24.43;;;2.10;99.90;;;;;;2614777;54;20396;-79
2022/11/19 05:55:18;;;;;;;33.67;22.10;;;2.10;99.90;;;;;;2615555;54;20186;-78
2022/11/19 06:01:06;;;;;;;39.70;27.10;;;2.00;99.90;;;;;;2615957;54;20222;-79
2022/11/19 06:06:54;;;;;;;37.50;24.87;;;2.00;99.90;;;;;;2616512;54;20382;-78
2022/11/19 06:12:43;;;;;;;40.70;24.23;;;2.00;99.90;;;;;;2616287;54;20238;-80
2022/11/19 06:18:31;;;;;;;36.30;23.17;;;2.00;99.90;;;;;;2617671;54;20410;-78
2022/11/19 06:24:19;;;;;;;35.50;23.87;;;1.90;99.90;;;;;;2617305;54;20147;-79
2022/11/19 06:30:09;;;;;;;35.40;23.23;;;2.00;99.90;;;;;;2617299;54;20369;-78
2022/11/19 06:35:57;;;;;;;31.57;20.63;;;1.90;99.90;;;;;;2617281;54;20538;-77
2022/11/19 06:41:44;;;;;;;37.33;24.17;;;2.00;99.90;;;;;;2615613;54;20403;-79
2022/11/19 06:47:32;;;;;;;37.00;23.37;;;2.00;99.90;;;;;;2614572;54;20677;-78
2022/11/19 06:56:41;;;;;;;33.30;21.37;;;2.00;99.90;;;;;;2614950;54;20371;-77
2022/11/19 07:02:29;;;;;;;29.33;20.63;;;2.00;99.90;;;;;;2614492;54;20205;-78
2022/11/19 07:08:16;;;;;;;34.77;21.40;;;2.00;99.90;;;;;;2615056;54;20395;-77
2022/11/19 07:14:04;;;;;;;28.67;20.93;;;2.00;99.90;;;;;;2616734;39;20604;-77
2022/11/19 07:19:51;;;;;;;32.30;22.27;;;2.00;99.90;;;;;;2615612;54;20140;-76
2022/11/19 07:25:41;;;;;;;29.30;20.97;;;2.00;99.90;;;;;;2613912;46;20154;-79
2022/11/19 07:31:28;;;;;;;29.93;20.07;;;2.00;99.90;;;;;;2615469;46;21023;-78
2022/11/19 07:34:05;;;;;;;30.43;20.33;;;1.90;99.90;;;;;;2615874;54;20383;-78
2022/11/19 07:39:52;;;;;;;31.13;20.70;;;2.10;99.90;;;;;;2615772;54;20424;-79
2022/11/19 07:45:39;;;;;;;30.57;19.80;;;2.20;99.90;;;;;;2615252;46;20258;-78
2022/11/19 07:54:48;;;;;;;30.57;19.60;;;2.10;99.90;;;;;;2615372;54;20419;-79
2022/11/19 08:00:36;;;;;;;27.53;18.40;;;2.10;99.90;;;;;;2616013;54;20655;-78
2022/11/19 08:06:26;;;;;;;32.17;21.10;;;2.10;99.90;;;;;;2616424;54;20451;-78
2022/11/19 08:12:13;;;;;;;25.23;17.60;;;2.10;99.90;;;;;;2616911;54;20379;-79
2022/11/19 08:24:09;;;;;;;27.07;19.63;;;1.90;99.90;;;;;;2615457;39;20744;-79
2022/11/19 08:40:11;;;;;;;26.10;18.93;;;1.80;99.90;;;;;;2618303;54;20366;-78
2022/11/19 08:45:58;;;;;;;27.70;18.90;;;1.80;99.90;;;;;;2617031;54;20405;-78
2022/11/19 08:51:45;;;;;;;24.47;17.40;;;1.70;99.90;;;;;;2615460;54;20122;-78
2022/11/19 08:57:33;;;;;;;22.07;16.50;;;1.60;99.90;;;;;;2614607;54;20224;-78
2022/11/19 09:03:20;;;;;;;21.03;17.03;;;1.60;99.90;;;;;;2614392;54;20152;-79
2022/11/19 09:09:07;;;;;;;21.40;16.43;;;1.70;99.90;;;;;;2615061;39;20572;-78
2022/11/19 09:14:55;;;;;;;19.40;14.80;;;1.70;99.90;;;;;;2616459;54;20129;-79
2022/11/19 09:20:43;;;;;;;21.63;15.73;;;1.60;99.90;;;;;;2616170;39;20498;-79
2022/11/19 09:26:31;;;;;;;22.37;16.93;;;1.70;99.90;;;;;;2616079;54;20942;-79
2022/11/19 09:29:35;;;;;;;24.73;16.20;;;1.60;99.90;;;;;;2615943;54;20462;-79
2022/11/19 09:32:00;;;;;;;22.80;16.73;;;1.90;99.90;;;;;;2616314;47;20150;-78
2022/11/19 09:37:48;;;;;;;18.30;14.90;;;1.70;99.90;;;;;;2616896;54;20155;-78
2022/11/19 09:43:55;;;;;;;19.17;15.33;;;1.80;99.90;;;;;;2616206;54;20163;-79
2022/11/19 09:50:13;;;;;;;17.83;13.97;;;1.70;99.90;;;;;;2616527;54;20379;-78
2022/11/19 09:56:01;;;;;;;19.63;15.00;;;1.90;99.90;;;;;;2615440;54;20466;-79
2022/11/19 10:01:49;;;;;;;18.30;15.47;;;2.00;99.90;;;;;;2616102;54;21452;-78
2022/11/19 10:14:16;;;;;;;23.43;17.43;;;2.30;99.90;;;;;;2616876;54;20465;-78
2022/11/19 10:26:39;;;;;;;21.83;14.90;;;2.50;99.90;;;;;;2616811;47;20871;-79
2022/11/19 10:29:37;;;;;;;15.40;13.80;;;2.40;99.90;;;;;;2615656;47;20962;-78
2022/11/19 10:32:24;;;;;;;16.53;14.50;;;2.60;99.90;;;;;;2616801;54;20434;-78
2022/11/19 10:35:30;;;;;;;17.97;14.70;;;2.50;99.90;;;;;;2616122;39;20777;-77
2022/11/19 10:38:00;;;;;;;19.27;14.93;;;2.60;99.90;;;;;;2616728;54;20450;-79
2022/11/19 11:00:00;;;;;;;16.27;14.67;;;3.10;99.90;;;;;;2616409;54;20424;-80
2022/11/19 11:06:00;;;;;;;16.70;14.87;;;2.90;99.90;;;;;;2617124;39;20581;-77
2022/11/19 11:18:09;;;;;;;18.33;15.60;;;3.10;99.90;;;;;;2618776;54;20391;-78
2022/11/19 11:23:58;;;;;;;16.80;15.17;;;3.30;99.90;;;;;;2618132;54;20362;-78
2022/11/19 11:36:33;;;;;;;15.13;13.63;;;3.60;99.90;;;;;;2618474;54;20927;-78
2022/11/19 11:42:25;;;;;;;17.73;15.93;;;3.90;99.90;;;;;;2616452;54;20393;-78
2022/11/19 11:48:21;;;;;;;16.77;15.00;;;3.80;99.40;;;;;;2616412;54;20423;-79
2022/11/19 11:54:18;;;;;;;16.80;15.00;;;3.80;99.90;;;;;;2617326;54;20371;-79
2022/11/19 12:06:53;;;;;;;16.13;14.53;;;3.90;99.90;;;;;;2613936;54;20428;-78
2022/11/19 12:13:14;;;;;;;20.70;16.40;;;3.90;96.70;;;;;;2613552;54;20395;-78
2022/11/19 12:29:40;;;;;;;17.17;15.00;;;3.90;92.10;;;;;;2613793;54;20373;-78
2022/11/19 13:03:41;;;;;;;19.90;16.43;;;3.60;94.70;;;;;;2615893;46;20382;-78
2022/11/19 13:15:59;;;;;;;17.70;15.87;;;3.40;93.60;;;;;;2617433;54;20920;-79
2022/11/19 13:22:11;;;;;;;17.10;15.13;;;3.60;94.70;;;;;;2616758;39;20752;-79
2022/11/19 13:28:01;;;;;;;17.70;15.90;;;3.40;98.20;;;;;;2616751;54;20383;-78
2022/11/19 13:33:55;;;;;;;17.77;15.87;;;3.70;92.80;;;;;;2617362;39;20778;-78
2022/11/19 13:59:00;;;;;;;17.27;15.67;;;3.60;92.10;;;;;;2615782;54;20420;-77
2022/11/19 14:11:28;;;;;;;17.83;16.00;;;2.90;97.20;;;;;;2614011;46;20389;-79
2022/11/19 14:46:15;;;;;;;17.00;15.30;;;3.00;94.00;;;;;;2616175;54;20370;-78
2022/11/19 14:58:23;;;;;;;16.40;14.70;;;2.60;98.20;;;;;;2616301;54;21412;-78
2022/11/19 15:04:12;;;;;;;16.63;14.93;;;2.40;99.50;;;;;;2616634;54;20431;-79
2022/11/19 15:10:16;;;;;;;18.87;16.13;;;2.30;99.90;;;;;;2616443;54;20466;-77
2022/11/19 15:16:15;;;;;;;17.43;15.60;;;2.20;99.90;;;;;;2616046;54;20389;-78
2022/11/19 15:35:15;;;;;;;16.63;14.73;;;1.80;99.90;;;;;;2614552;54;20391;-80
2022/11/19 15:41:05;;;;;;;16.50;14.73;;;1.80;99.90;;;;;;2615872;47;20857;-81
2022/11/19 15:47:00;;;;;;;15.90;13.70;;;1.90;99.90;;;;;;2617125;54;20399;-80
2022/11/19 15:59:21;;;;;;;14.37;12.97;;;2.10;99.90;;;;;;2616588;54;20387;-80
2022/11/19 16:04:59;;;;;;;15.90;14.40;;;2.10;97.70;;;;;;2615348;46;20413;-80
2022/11/19 16:17:30;;;;;;;14.50;13.10;;;2.10;97.70;;;;;;2617932;31;20607;-80
2022/11/19 16:23:29;;;;;;;16.63;13.93;;;2.10;99.80;;;;;;2616647;54;20427;-80
2022/11/19 16:29:22;;;;;;;16.70;14.33;;;2.20;99.90;;;;;;2615526;54;20416;-80
2022/11/19 16:32:26;;;;;;;16.30;14.60;;;2.20;99.00;;;;;;2616013;47;20403;-78
2022/11/19 16:34:51;;;;;;;15.47;13.93;;;2.10;98.70;;;;;;2615624;47;20399;-80
2022/11/19 16:37:21;;;;;;;19.23;15.57;;;2.20;99.90;;;;;;2616000;54;20986;-80
2022/11/19 16:39:52;;;;;;;15.60;13.93;;;2.10;99.40;;;;;;2615850;54;20159;-78
2022/11/19 16:45:44;;;;;;;16.93;14.30;;;2.10;99.90;;;;;;2616511;54;20388;-79
2022/11/19 16:57:58;;;;;;;16.63;14.93;;;2.10;99.50;;;;;;2617304;54;20480;-77
2022/11/19 17:03:45;;;;;;;18.13;15.67;;;1.90;99.90;;;;;;2617718;54;20375;-77
2022/11/19 17:09:43;;;;;;;19.67;17.63;;;1.80;99.90;;;;;;2617578;54;20378;-78
2022/11/19 17:15:38;;;;;;;22.00;18.60;;;1.40;99.90;;;;;;2617820;54;20928;-77
2022/11/19 17:21:29;;;;;;;18.57;15.43;;;1.10;99.90;;;;;;2616512;46;20454;-80
2022/11/19 17:34:12;;;;;;;18.53;16.03;;;0.80;99.90;;;;;;2613658;54;20354;-80
2022/11/19 17:37:18;;;;;;;17.33;15.53;;;0.70;99.90;;;;;;2615444;46;20864;-81
2022/11/19 17:39:44;;;;;;;16.47;14.60;;;0.50;99.90;;;;;;2614331;47;20461;-79
2022/11/19 17:45:31;;;;;;;19.37;17.13;;;0.30;99.90;;;;;;2614333;54;20401;-80
2022/11/19 17:51:24;;;;;;;17.17;14.17;;;0.10;99.90;;;;;;2613765;54;20129;-78
2022/11/19 17:57:11;;;;;;;24.00;17.97;;;0.00;99.90;;;;;;2614862;54;20520;-81
2022/11/19 18:02:57;;;;;;;34.97;22.67;;;-0.10;99.90;;;;;;2615231;54;20122;-80
2022/11/19 18:08:45;;;;;;;21.67;16.90;;;-0.20;99.90;;;;;;2616370;54;20162;-79
2022/11/19 18:14:33;;;;;;;20.27;17.90;;;-0.20;99.90;;;;;;2615997;54;20378;-78
2022/11/19 18:20:20;;;;;;;19.50;15.70;;;-0.40;99.90;;;;;;2615613;31;20674;-81
2022/11/19 18:26:16;;;;;;;24.30;20.17;;;-0.40;99.90;;;;;;2616422;47;20126;-81
2022/11/19 18:35:31;;;;;;;47.80;28.67;;;-0.60;99.90;;;;;;2614669;54;20419;-80
2022/11/19 18:37:57;;;;;;;37.30;30.23;;;-0.60;99.90;;;;;;2615192;54;20431;-81
2022/11/19 18:40:22;;;;;;;25.87;18.27;;;-0.60;99.90;;;;;;2615178;47;20542;-82
2022/11/19 18:46:10;;;;;;;21.97;17.97;;;-0.50;99.90;;;;;;2614000;54;20296;-79
2022/11/19 18:51:58;;;;;;;26.33;19.37;;;-0.60;99.90;;;;;;2616743;54;20712;-80
2022/11/19 18:57:47;;;;;;;21.13;17.30;;;-0.70;99.90;;;;;;2617068;54;20369;-79
2022/11/19 19:03:35;;;;;;;32.63;23.10;;;-0.80;99.90;;;;;;2618505;54;20422;-78
2022/11/19 19:09:22;;;;;;;26.50;19.73;;;-0.90;99.90;;;;;;2617719;54;20122;-75
2022/11/19 19:15:10;;;;;;;30.00;19.63;;;-1.00;99.90;;;;;;2617418;54;20130;-77
2022/11/19 19:20:58;;;;;;;25.40;19.30;;;-1.00;99.90;;;;;;2618117;54;20178;-77
2022/11/19 19:26:46;;;;;;;22.37;18.10;;;-1.10;99.90;;;;;;2618041;54;20138;-77
2022/11/19 19:32:33;;;;;;;27.20;19.00;;;-1.20;99.90;;;;;;2617555;54;20130;-79
2022/11/19 19:42:43;;;;;;;36.70;22.40;;;-1.30;99.90;;;;;;2617458;54;20528;-79
2022/11/19 19:48:31;;;;;;;26.10;19.83;;;-1.20;99.90;;;;;;2617594;54;20394;-79
2022/11/19 19:54:19;;;;;;;23.20;18.10;;;-1.30;99.90;;;;;;2618282;54;20880;-78
2022/11/19 20:00:07;;;;;;;25.63;19.93;;;-1.40;99.90;;;;;;2617663;54;20126;-80
2022/11/19 20:05:55;;;;;;;26.70;19.63;;;-1.50;99.90;;;;;;2617861;39;20722;-77
2022/11/19 20:11:43;;;;;;;27.70;19.40;;;-1.40;99.90;;;;;;2617123;39;20774;-79
2022/11/19 20:17:31;;;;;;;27.30;19.37;;;-1.60;99.90;;;;;;2616391;54;20743;-80
2022/11/19 20:23:19;;;;;;;30.13;21.10;;;-1.60;99.90;;;;;;2617397;54;20129;-78
2022/11/19 20:29:09;;;;;;;26.37;19.87;;;-1.60;99.90;;;;;;2617545;54;20156;-78
2022/11/19 20:34:57;;;;;;;27.43;21.37;;;-1.50;99.90;;;;;;2617565;54;20395;-78
2022/11/19 20:38:11;;;;;;;32.83;23.27;;;-1.70;99.90;;;;;;2616169;47;20399;-78
2022/11/19 20:40:37;;;;;;;25.63;21.00;;;-1.70;99.90;;;;;;2617560;31;20595;-78
2022/11/19 20:46:25;;;;;;;24.20;18.23;;;-1.80;99.90;;;;;;2616852;54;20399;-79
2022/11/19 20:52:14;;;;;;;27.53;21.23;;;-1.90;99.90;;;;;;2616813;46;20138;-77
2022/11/19 20:58:02;;;;;;;34.27;26.23;;;-1.80;99.90;;;;;;2616541;54;20367;-78
2022/11/19 21:03:50;;;;;;;30.70;22.40;;;-1.80;99.90;;;;;;2616761;54;20656;-77
2022/11/19 21:09:38;;;;;;;26.87;20.53;;;-2.10;99.90;;;;;;2617884;39;20610;-78
2022/11/19 21:15:27;;;;;;;33.87;23.83;;;-2.10;99.90;;;;;;2615005;54;20381;-77
2022/11/19 21:21:16;;;;;;;34.70;21.83;;;-2.20;99.90;;;;;;2615774;54;20375;-77
2022/11/19 21:27:03;;;;;;;26.10;19.47;;;-2.10;99.90;;;;;;2614285;54;20488;-79
2022/11/19 21:32:50;;;;;;;25.27;18.97;;;-2.10;99.90;;;;;;2615575;54;20279;-78
2022/11/19 21:42:45;;;;;;;30.63;22.10;;;-2.00;99.90;;;;;;2614871;54;20399;-78
2022/11/19 21:48:32;;;;;;;30.27;20.90;;;-2.00;99.90;;;;;;2615507;54;20363;-78
2022/11/19 21:54:19;;;;;;;28.10;21.37;;;-2.00;99.90;;;;;;2616415;39;20747;-78
2022/11/19 21:56:46;;;;;;;28.17;21.23;;;-1.90;99.90;;;;;;2615644;46;20407;-79
2022/11/19 21:59:12;;;;;;;28.17;20.77;;;-1.90;99.90;;;;;;2615511;47;20158;-79
2022/11/19 22:04:59;;;;;;;30.90;22.10;;;-2.00;99.90;;;;;;2615891;54;21014;-79
2022/11/19 22:10:48;;;;;;;30.23;22.77;;;-2.00;99.90;;;;;;2616045;54;20123;-78
2022/11/19 22:20:17;;;;;;;30.97;23.30;;;-2.20;99.90;;;;;;2614207;54;20355;-79
2022/11/19 22:26:06;;;;;;;30.47;20.60;;;-2.20;99.90;;;;;;2614048;54;20655;-78
2022/11/19 22:29:09;;;;;;;35.00;24.40;;;-2.30;99.90;;;;;;2614430;47;20418;-79
2022/11/19 22:31:34;;;;;;;26.40;20.07;;;-2.50;99.90;;;;;;2614878;47;20394;-78
2022/11/19 22:37:21;;;;;;;27.77;20.10;;;-2.50;99.90;;;;;;2615539;54;20263;-78
2022/11/19 22:43:08;;;;;;;48.33;29.30;;;-2.50;99.90;;;;;;2614475;47;20161;-78
2022/11/19 22:48:56;;;;;;;43.10;28.60;;;-2.80;99.90;;;;;;2615756;54;20660;-78
2022/11/19 22:54:43;;;;;;;43.17;28.90;;;-2.70;99.90;;;;;;2616539;54;20455;-78
2022/11/19 23:07:19;;;;;;;44.07;27.47;;;-2.60;99.90;;;;;;2615546;54;20387;-77
2022/11/19 23:19:17;;;;;;;41.80;26.27;;;-2.60;99.90;;;;;;2615734;54;20410;-77
2022/11/19 23:25:05;;;;;;;38.20;28.50;;;-2.30;99.90;;;;;;2616329;54;20516;-78
2022/11/19 23:30:52;;;;;;;35.60;26.03;;;-2.20;99.90;;;;;;2616174;54;20524;-78
2022/11/19 23:36:40;;;;;;;35.23;26.67;;;-2.30;99.90;;;;;;2616256;54;20134;-80
2022/11/19 23:42:28;;;;;;;39.70;28.40;;;-2.10;99.90;;;;;;2617371;54;20387;-77
2022/11/19 23:48:16;;;;;;;48.00;30.90;;;-2.00;99.90;;;;;;2617268;54;20296;-78
2022/11/19 23:54:04;;;;;;;53.47;33.43;;;-1.90;99.90;;;;;;2617433;54;20495;-78
2022/11/19 23:59:52;;;;;;;40.47;31.20;;;-1.90;99.90;;;;;;2617335;54;20535;-78
